Terminal Aerodrome Forecast
Issued by NWS

Home | Current Version | Previous Version | Text Only | Print | Product List | Glossary On
Versions: 1 2 3 4 5 6 7 8 9 10 11 12 13 14 15 16 17 18 19 20 21 22
000
FTUS46 KLOX 060600 AAA
TAFSBP
TAF AMD
KSBP 060600Z 0606/0706 31008KT P6SM OVC017
     FM061000 VRB03KT P6SM OVC012
     FM061600 31006KT P6SM BKN020
     FM061900 30015G20KT P6SM BKN025
     FM070200 30010KT P6SM SCT020
     FM070400 30008KT P6SM BKN020=

USA.gov is the U.S. government's official web portal to all federal, state and local government web resources and services.